sensor_id;sensor_type;location;lat;lon;timestamp;P1;durP1;ratioP1;P2;durP2;ratioP2
4452;SDS011;2239;48.152;11.584;2023-05-29T00:00:01;3.40;;;1.70;;
4452;SDS011;2239;48.152;11.584;2023-05-29T00:02:31;6.37;;;2.33;;
4452;SDS011;2239;48.152;11.584;2023-05-29T00:04:57;8.70;;;2.47;;
4452;SDS011;2239;48.152;11.584;2023-05-29T00:07:22;7.00;;;2.57;;
4452;SDS011;2239;48.152;11.584;2023-05-29T00:09:48;6.23;;;2.60;;
4452;SDS011;2239;48.152;11.584;2023-05-29T00:12:13;6.20;;;2.13;;
4452;SDS011;2239;48.152;11.584;2023-05-29T00:14:40;7.50;;;2.50;;
4452;SDS011;2239;48.152;11.584;2023-05-29T00:17:05;5.80;;;2.10;;
4452;SDS011;2239;48.152;11.584;2023-05-29T00:19:31;3.93;;;2.17;;
4452;SDS011;2239;48.152;11.584;2023-05-29T00:21:57;5.20;;;2.10;;
4452;SDS011;2239;48.152;11.584;2023-05-29T00:24:22;4.40;;;2.03;;
4452;SDS011;2239;48.152;11.584;2023-05-29T00:26:48;5.03;;;2.40;;
4452;SDS011;2239;48.152;11.584;2023-05-29T00:29:13;6.83;;;2.87;;
4452;SDS011;2239;48.152;11.584;2023-05-29T00:31:40;4.77;;;2.27;;
4452;SDS011;2239;48.152;11.584;2023-05-29T00:34:05;5.10;;;2.13;;
4452;SDS011;2239;48.152;11.584;2023-05-29T00:36:33;4.90;;;1.83;;
4452;SDS011;2239;48.152;11.584;2023-05-29T00:38:59;6.83;;;2.93;;
4452;SDS011;2239;48.152;11.584;2023-05-29T00:41:24;4.37;;;1.97;;
4452;SDS011;2239;48.152;11.584;2023-05-29T00:43:50;9.70;;;2.67;;
4452;SDS011;2239;48.152;11.584;2023-05-29T00:46:15;8.20;;;2.70;;
4452;SDS011;2239;48.152;11.584;2023-05-29T00:48:41;2.83;;;1.80;;
4452;SDS011;2239;48.152;11.584;2023-05-29T00:51:08;8.03;;;3.23;;
4452;SDS011;2239;48.152;11.584;2023-05-29T00:53:36;8.03;;;2.73;;
4452;SDS011;2239;48.152;11.584;2023-05-29T00:56:03;3.17;;;2.30;;
4452;SDS011;2239;48.152;11.584;2023-05-29T00:58:29;6.23;;;3.37;;
4452;SDS011;2239;48.152;11.584;2023-05-29T01:00:55;8.33;;;2.90;;
4452;SDS011;2239;48.152;11.584;2023-05-29T01:03:21;6.47;;;2.40;;
4452;SDS011;2239;48.152;11.584;2023-05-29T01:05:48;4.80;;;2.30;;
4452;SDS011;2239;48.152;11.584;2023-05-29T01:08:14;8.70;;;3.00;;
4452;SDS011;2239;48.152;11.584;2023-05-29T01:10:39;5.20;;;2.97;;
4452;SDS011;2239;48.152;11.584;2023-05-29T01:13:27;9.17;;;2.80;;
4452;SDS011;2239;48.152;11.584;2023-05-29T01:16:12;5.90;;;2.90;;
4452;SDS011;2239;48.152;11.584;2023-05-29T01:18:54;7.50;;;3.00;;
4452;SDS011;2239;48.152;11.584;2023-05-29T01:27:05;8.73;;;3.67;;
4452;SDS011;2239;48.152;11.584;2023-05-29T01:29:35;9.33;;;2.90;;
4452;SDS011;2239;48.152;11.584;2023-05-29T01:32:04;10.43;;;3.50;;
4452;SDS011;2239;48.152;11.584;2023-05-29T01:34:30;8.70;;;3.70;;
4452;SDS011;2239;48.152;11.584;2023-05-29T01:36:56;8.77;;;3.80;;
4452;SDS011;2239;48.152;11.584;2023-05-29T01:39:22;6.97;;;3.20;;
4452;SDS011;2239;48.152;11.584;2023-05-29T01:41:48;7.10;;;3.63;;
4452;SDS011;2239;48.152;11.584;2023-05-29T01:44:14;10.77;;;3.97;;
4452;SDS011;2239;48.152;11.584;2023-05-29T01:46:42;7.80;;;3.30;;
4452;SDS011;2239;48.152;11.584;2023-05-29T01:49:08;8.50;;;3.37;;
4452;SDS011;2239;48.152;11.584;2023-05-29T01:51:36;10.10;;;3.87;;
4452;SDS011;2239;48.152;11.584;2023-05-29T01:54:01;8.90;;;3.53;;
4452;SDS011;2239;48.152;11.584;2023-05-29T01:56:28;12.00;;;4.27;;
4452;SDS011;2239;48.152;11.584;2023-05-29T01:58:54;9.83;;;4.17;;
4452;SDS011;2239;48.152;11.584;2023-05-29T02:01:21;8.53;;;3.30;;
4452;SDS011;2239;48.152;11.584;2023-05-29T02:03:47;10.27;;;3.73;;
4452;SDS011;2239;48.152;11.584;2023-05-29T02:06:13;7.00;;;3.53;;
4452;SDS011;2239;48.152;11.584;2023-05-29T02:08:38;8.97;;;3.57;;
4452;SDS011;2239;48.152;11.584;2023-05-29T02:11:04;13.63;;;4.00;;
4452;SDS011;2239;48.152;11.584;2023-05-29T02:13:30;8.20;;;3.23;;
4452;SDS011;2239;48.152;11.584;2023-05-29T02:15:56;9.73;;;3.37;;
4452;SDS011;2239;48.152;11.584;2023-05-29T02:18:21;12.10;;;3.93;;
4452;SDS011;2239;48.152;11.584;2023-05-29T02:20:47;7.43;;;3.30;;
4452;SDS011;2239;48.152;11.584;2023-05-29T02:23:13;9.53;;;4.20;;
4452;SDS011;2239;48.152;11.584;2023-05-29T02:25:40;13.00;;;4.20;;
4452;SDS011;2239;48.152;11.584;2023-05-29T02:28:06;7.30;;;3.60;;
4452;SDS011;2239;48.152;11.584;2023-05-29T02:30:31;9.53;;;3.80;;
4452;SDS011;2239;48.152;11.584;2023-05-29T02:32:57;11.63;;;4.77;;
4452;SDS011;2239;48.152;11.584;2023-05-29T02:35:22;8.50;;;4.07;;
4452;SDS011;2239;48.152;11.584;2023-05-29T02:37:48;9.00;;;3.10;;
4452;SDS011;2239;48.152;11.584;2023-05-29T02:40:18;8.77;;;3.53;;
4452;SDS011;2239;48.152;11.584;2023-05-29T02:42:48;6.50;;;3.10;;
4452;SDS011;2239;48.152;11.584;2023-05-29T02:45:13;5.27;;;3.13;;
4452;SDS011;2239;48.152;11.584;2023-05-29T02:47:39;8.77;;;3.80;;
4452;SDS011;2239;48.152;11.584;2023-05-29T02:50:05;7.73;;;3.00;;
4452;SDS011;2239;48.152;11.584;2023-05-29T02:52:34;4.77;;;2.80;;
4452;SDS011;2239;48.152;11.584;2023-05-29T02:55:01;4.97;;;2.40;;
4452;SDS011;2239;48.152;11.584;2023-05-29T02:57:27;4.80;;;2.83;;
4452;SDS011;2239;48.152;11.584;2023-05-29T02:59:53;9.47;;;3.53;;
4452;SDS011;2239;48.152;11.584;2023-05-29T03:02:20;4.70;;;2.47;;
4452;SDS011;2239;48.152;11.584;2023-05-29T03:04:45;7.20;;;2.33;;
4452;SDS011;2239;48.152;11.584;2023-05-29T03:07:11;7.90;;;2.60;;
4452;SDS011;2239;48.152;11.584;2023-05-29T03:09:37;5.50;;;2.83;;
4452;SDS011;2239;48.152;11.584;2023-05-29T03:12:03;8.10;;;3.03;;
4452;SDS011;2239;48.152;11.584;2023-05-29T03:14:29;5.10;;;2.23;;
4452;SDS011;2239;48.152;11.584;2023-05-29T03:16:55;8.60;;;2.53;;
4452;SDS011;2239;48.152;11.584;2023-05-29T03:19:21;5.83;;;2.53;;
4452;SDS011;2239;48.152;11.584;2023-05-29T03:21:46;6.20;;;2.47;;
4452;SDS011;2239;48.152;11.584;2023-05-29T03:24:12;5.37;;;2.57;;
4452;SDS011;2239;48.152;11.584;2023-05-29T03:26:41;8.43;;;2.60;;
4452;SDS011;2239;48.152;11.584;2023-05-29T03:29:06;5.77;;;2.93;;
4452;SDS011;2239;48.152;11.584;2023-05-29T03:31:32;3.67;;;2.10;;
4452;SDS011;2239;48.152;11.584;2023-05-29T03:33:58;3.60;;;2.60;;
4452;SDS011;2239;48.152;11.584;2023-05-29T03:36:24;4.43;;;2.33;;
4452;SDS011;2239;48.152;11.584;2023-05-29T03:38:50;3.23;;;1.67;;
4452;SDS011;2239;48.152;11.584;2023-05-29T03:41:16;4.37;;;2.23;;
4452;SDS011;2239;48.152;11.584;2023-05-29T03:43:41;6.20;;;3.50;;
4452;SDS011;2239;48.152;11.584;2023-05-29T03:46:07;4.97;;;2.47;;
4452;SDS011;2239;48.152;11.584;2023-05-29T03:48:32;7.17;;;2.60;;
4452;SDS011;2239;48.152;11.584;2023-05-29T03:50:58;3.43;;;1.80;;
4452;SDS011;2239;48.152;11.584;2023-05-29T03:53:23;5.77;;;2.93;;
4452;SDS011;2239;48.152;11.584;2023-05-29T03:55:49;6.77;;;2.00;;
4452;SDS011;2239;48.152;11.584;2023-05-29T03:58:15;6.93;;;2.30;;
4452;SDS011;2239;48.152;11.584;2023-05-29T04:00:40;6.23;;;2.10;;
4452;SDS011;2239;48.152;11.584;2023-05-29T04:03:06;4.83;;;1.90;;
4452;SDS011;2239;48.152;11.584;2023-05-29T04:05:32;4.93;;;2.47;;
4452;SDS011;2239;48.152;11.584;2023-05-29T04:07:57;3.80;;;2.43;;
4452;SDS011;2239;48.152;11.584;2023-05-29T04:10:23;3.10;;;2.10;;
4452;SDS011;2239;48.152;11.584;2023-05-29T04:12:49;6.20;;;2.20;;
4452;SDS011;2239;48.152;11.584;2023-05-29T04:15:16;5.73;;;2.10;;
4452;SDS011;2239;48.152;11.584;2023-05-29T04:17:41;13.27;;;2.60;;
4452;SDS011;2239;48.152;11.584;2023-05-29T04:20:07;2.97;;;2.00;;
4452;SDS011;2239;48.152;11.584;2023-05-29T04:22:36;3.33;;;2.20;;
4452;SDS011;2239;48.152;11.584;2023-05-29T04:25:03;4.80;;;2.50;;
4452;SDS011;2239;48.152;11.584;2023-05-29T04:27:29;4.03;;;2.30;;
4452;SDS011;2239;48.152;11.584;2023-05-29T04:29:56;4.97;;;2.07;;
4452;SDS011;2239;48.152;11.584;2023-05-29T04:32:22;5.90;;;2.40;;
4452;SDS011;2239;48.152;11.584;2023-05-29T04:34:48;2.80;;;1.83;;
4452;SDS011;2239;48.152;11.584;2023-05-29T04:37:14;3.50;;;2.57;;
4452;SDS011;2239;48.152;11.584;2023-05-29T04:39:40;4.63;;;2.37;;
4452;SDS011;2239;48.152;11.584;2023-05-29T04:42:05;5.60;;;2.00;;
4452;SDS011;2239;48.152;11.584;2023-05-29T04:44:31;6.93;;;2.50;;
4452;SDS011;2239;48.152;11.584;2023-05-29T04:46:58;8.47;;;1.80;;
4452;SDS011;2239;48.152;11.584;2023-05-29T04:49:23;3.73;;;1.83;;
4452;SDS011;2239;48.152;11.584;2023-05-29T04:51:49;2.97;;;1.70;;
4452;SDS011;2239;48.152;11.584;2023-05-29T04:54:17;4.40;;;2.33;;
4452;SDS011;2239;48.152;11.584;2023-05-29T04:56:44;5.37;;;2.20;;
4452;SDS011;2239;48.152;11.584;2023-05-29T04:59:11;7.90;;;2.90;;
4452;SDS011;2239;48.152;11.584;2023-05-29T05:01:37;7.13;;;2.40;;
4452;SDS011;2239;48.152;11.584;2023-05-29T05:04:02;7.00;;;2.60;;
4452;SDS011;2239;48.152;11.584;2023-05-29T05:06:28;10.73;;;2.43;;
4452;SDS011;2239;48.152;11.584;2023-05-29T05:08:54;9.07;;;2.70;;
4452;SDS011;2239;48.152;11.584;2023-05-29T05:11:21;5.40;;;1.73;;
4452;SDS011;2239;48.152;11.584;2023-05-29T05:13:48;8.63;;;2.70;;
4452;SDS011;2239;48.152;11.584;2023-05-29T05:16:14;5.63;;;2.70;;
4452;SDS011;2239;48.152;11.584;2023-05-29T05:18:41;5.47;;;3.00;;
4452;SDS011;2239;48.152;11.584;2023-05-29T05:21:08;6.80;;;3.00;;
4452;SDS011;2239;48.152;11.584;2023-05-29T05:23:33;7.27;;;2.40;;
4452;SDS011;2239;48.152;11.584;2023-05-29T05:25:59;8.80;;;3.20;;
4452;SDS011;2239;48.152;11.584;2023-05-29T05:28:25;5.00;;;2.60;;
4452;SDS011;2239;48.152;11.584;2023-05-29T05:30:50;3.80;;;2.00;;
4452;SDS011;2239;48.152;11.584;2023-05-29T05:33:16;5.30;;;2.30;;
4452;SDS011;2239;48.152;11.584;2023-05-29T05:35:42;7.73;;;2.77;;
4452;SDS011;2239;48.152;11.584;2023-05-29T05:38:08;8.20;;;2.47;;
4452;SDS011;2239;48.152;11.584;2023-05-29T05:40:34;6.20;;;2.10;;
4452;SDS011;2239;48.152;11.584;2023-05-29T05:42:59;6.83;;;2.30;;
4452;SDS011;2239;48.152;11.584;2023-05-29T05:45:25;4.20;;;2.10;;
4452;SDS011;2239;48.152;11.584;2023-05-29T05:47:50;4.73;;;2.00;;
4452;SDS011;2239;48.152;11.584;2023-05-29T05:50:16;7.83;;;3.17;;
4452;SDS011;2239;48.152;11.584;2023-05-29T05:52:41;8.70;;;3.07;;
4452;SDS011;2239;48.152;11.584;2023-05-29T05:55:07;3.20;;;2.20;;
4452;SDS011;2239;48.152;11.584;2023-05-29T05:57:33;3.87;;;2.17;;
4452;SDS011;2239;48.152;11.584;2023-05-29T06:00:00;3.60;;;2.20;;
4452;SDS011;2239;48.152;11.584;2023-05-29T06:02:27;5.13;;;2.17;;
4452;SDS011;2239;48.152;11.584;2023-05-29T06:04:53;8.50;;;2.80;;
4452;SDS011;2239;48.152;11.584;2023-05-29T06:07:19;5.90;;;2.33;;
4452;SDS011;2239;48.152;11.584;2023-05-29T06:09:45;3.80;;;2.03;;
4452;SDS011;2239;48.152;11.584;2023-05-29T06:12:10;2.93;;;1.70;;
4452;SDS011;2239;48.152;11.584;2023-05-29T06:14:36;5.43;;;1.97;;
4452;SDS011;2239;48.152;11.584;2023-05-29T06:17:01;7.30;;;2.27;;
4452;SDS011;2239;48.152;11.584;2023-05-29T06:19:27;5.47;;;2.27;;
4452;SDS011;2239;48.152;11.584;2023-05-29T06:21:52;2.50;;;1.80;;
4452;SDS011;2239;48.152;11.584;2023-05-29T06:24:18;5.50;;;1.93;;
4452;SDS011;2239;48.152;11.584;2023-05-29T06:26:43;3.67;;;2.33;;
4452;SDS011;2239;48.152;11.584;2023-05-29T06:29:09;4.67;;;1.90;;
4452;SDS011;2239;48.152;11.584;2023-05-29T06:31:35;4.30;;;2.30;;
4452;SDS011;2239;48.152;11.584;2023-05-29T06:34:00;6.77;;;3.30;;
4452;SDS011;2239;48.152;11.584;2023-05-29T06:36:26;2.77;;;1.73;;
4452;SDS011;2239;48.152;11.584;2023-05-29T06:38:52;2.93;;;1.80;;
4452;SDS011;2239;48.152;11.584;2023-05-29T06:41:17;3.63;;;1.50;;
4452;SDS011;2239;48.152;11.584;2023-05-29T06:43:43;3.97;;;1.97;;
4452;SDS011;2239;48.152;11.584;2023-05-29T06:46:09;4.23;;;1.60;;
4452;SDS011;2239;48.152;11.584;2023-05-29T06:48:35;3.80;;;2.20;;
4452;SDS011;2239;48.152;11.584;2023-05-29T06:51:01;3.20;;;1.70;;
4452;SDS011;2239;48.152;11.584;2023-05-29T06:53:34;3.27;;;1.40;;
4452;SDS011;2239;48.152;11.584;2023-05-29T06:56:03;4.13;;;1.60;;
4452;SDS011;2239;48.152;11.584;2023-05-29T06:58:30;3.47;;;1.83;;
4452;SDS011;2239;48.152;11.584;2023-05-29T07:00:56;3.27;;;1.73;;
4452;SDS011;2239;48.152;11.584;2023-05-29T07:03:22;2.90;;;2.00;;
4452;SDS011;2239;48.152;11.584;2023-05-29T07:05:48;3.80;;;1.77;;
4452;SDS011;2239;48.152;11.584;2023-05-29T07:08:14;3.90;;;1.97;;
4452;SDS011;2239;48.152;11.584;2023-05-29T07:10:39;4.97;;;2.10;;
4452;SDS011;2239;48.152;11.584;2023-05-29T07:13:05;3.07;;;1.70;;
4452;SDS011;2239;48.152;11.584;2023-05-29T07:15:31;4.50;;;2.20;;
4452;SDS011;2239;48.152;11.584;2023-05-29T07:17:57;3.80;;;2.13;;
4452;SDS011;2239;48.152;11.584;2023-05-29T07:20:22;6.17;;;2.60;;
4452;SDS011;2239;48.152;11.584;2023-05-29T07:22:48;4.60;;;2.00;;
4452;SDS011;2239;48.152;11.584;2023-05-29T07:25:14;3.93;;;2.50;;
4452;SDS011;2239;48.152;11.584;2023-05-29T07:27:39;2.83;;;1.80;;
4452;SDS011;2239;48.152;11.584;2023-05-29T07:30:05;4.10;;;2.00;;
4452;SDS011;2239;48.152;11.584;2023-05-29T07:32:31;7.60;;;2.83;;
4452;SDS011;2239;48.152;11.584;2023-05-29T07:34:57;3.50;;;2.30;;
4452;SDS011;2239;48.152;11.584;2023-05-29T07:37:23;4.40;;;2.47;;
4452;SDS011;2239;48.152;11.584;2023-05-29T07:39:48;2.90;;;1.97;;
4452;SDS011;2239;48.152;11.584;2023-05-29T07:42:14;3.83;;;2.53;;
4452;SDS011;2239;48.152;11.584;2023-05-29T07:44:40;2.87;;;1.97;;
4452;SDS011;2239;48.152;11.584;2023-05-29T07:47:08;6.50;;;2.50;;
4452;SDS011;2239;48.152;11.584;2023-05-29T07:49:34;3.00;;;2.00;;
4452;SDS011;2239;48.152;11.584;2023-05-29T07:52:01;9.83;;;2.20;;
4452;SDS011;2239;48.152;11.584;2023-05-29T07:54:30;5.07;;;2.00;;
4452;SDS011;2239;48.152;11.584;2023-05-29T07:56:57;4.37;;;2.27;;
4452;SDS011;2239;48.152;11.584;2023-05-29T07:59:24;5.43;;;2.17;;
4452;SDS011;2239;48.152;11.584;2023-05-29T08:01:51;6.00;;;2.67;;
4452;SDS011;2239;48.152;11.584;2023-05-29T08:04:17;4.17;;;2.40;;
4452;SDS011;2239;48.152;11.584;2023-05-29T08:06:43;2.90;;;2.10;;
4452;SDS011;2239;48.152;11.584;2023-05-29T08:09:09;6.20;;;2.80;;
4452;SDS011;2239;48.152;11.584;2023-05-29T08:11:36;6.70;;;2.50;;
4452;SDS011;2239;48.152;11.584;2023-05-29T08:14:02;6.10;;;2.00;;
4452;SDS011;2239;48.152;11.584;2023-05-29T08:16:28;10.37;;;2.97;;
4452;SDS011;2239;48.152;11.584;2023-05-29T08:18:53;4.30;;;2.23;;
4452;SDS011;2239;48.152;11.584;2023-05-29T08:21:20;3.30;;;2.37;;
4452;SDS011;2239;48.152;11.584;2023-05-29T08:23:45;4.80;;;2.10;;
4452;SDS011;2239;48.152;11.584;2023-05-29T08:26:11;3.70;;;2.53;;
4452;SDS011;2239;48.152;11.584;2023-05-29T08:28:38;4.23;;;2.20;;
4452;SDS011;2239;48.152;11.584;2023-05-29T08:31:03;4.30;;;2.07;;
4452;SDS011;2239;48.152;11.584;2023-05-29T08:33:29;6.47;;;2.60;;
4452;SDS011;2239;48.152;11.584;2023-05-29T08:35:56;5.13;;;2.03;;
4452;SDS011;2239;48.152;11.584;2023-05-29T08:38:23;5.40;;;1.90;;
4452;SDS011;2239;48.152;11.584;2023-05-29T08:40:50;3.57;;;2.00;;
4452;SDS011;2239;48.152;11.584;2023-05-29T08:43:17;5.30;;;2.40;;
4452;SDS011;2239;48.152;11.584;2023-05-29T08:45:50;6.10;;;2.10;;
4452;SDS011;2239;48.152;11.584;2023-05-29T08:48:19;3.70;;;2.47;;
4452;SDS011;2239;48.152;11.584;2023-05-29T08:50:53;5.03;;;2.03;;
4452;SDS011;2239;48.152;11.584;2023-05-29T08:53:20;3.30;;;2.00;;
4452;SDS011;2239;48.152;11.584;2023-05-29T08:55:47;3.90;;;2.10;;
4452;SDS011;2239;48.152;11.584;2023-05-29T08:58:15;7.20;;;2.30;;
4452;SDS011;2239;48.152;11.584;2023-05-29T09:00:42;4.90;;;1.80;;
4452;SDS011;2239;48.152;11.584;2023-05-29T09:03:09;2.80;;;1.73;;
4452;SDS011;2239;48.152;11.584;2023-05-29T09:05:34;2.47;;;1.47;;
4452;SDS011;2239;48.152;11.584;2023-05-29T09:08:04;4.87;;;2.00;;
4452;SDS011;2239;48.152;11.584;2023-05-29T09:10:30;3.67;;;2.03;;
4452;SDS011;2239;48.152;11.584;2023-05-29T09:12:57;4.33;;;2.27;;
4452;SDS011;2239;48.152;11.584;2023-05-29T09:15:23;3.50;;;1.90;;
4452;SDS011;2239;48.152;11.584;2023-05-29T09:17:52;5.50;;;2.00;;
4452;SDS011;2239;48.152;11.584;2023-05-29T09:20:20;3.90;;;2.33;;
4452;SDS011;2239;48.152;11.584;2023-05-29T09:22:55;5.13;;;2.40;;
4452;SDS011;2239;48.152;11.584;2023-05-29T09:25:32;3.00;;;2.33;;
4452;SDS011;2239;48.152;11.584;2023-05-29T09:28:07;5.30;;;2.50;;
4452;SDS011;2239;48.152;11.584;2023-05-29T09:30:38;4.00;;;1.67;;
4452;SDS011;2239;48.152;11.584;2023-05-29T09:33:04;4.70;;;2.10;;
4452;SDS011;2239;48.152;11.584;2023-05-29T09:35:35;4.30;;;1.80;;
4452;SDS011;2239;48.152;11.584;2023-05-29T09:38:09;3.87;;;1.97;;
4452;SDS011;2239;48.152;11.584;2023-05-29T09:40:37;6.30;;;2.23;;
4452;SDS011;2239;48.152;11.584;2023-05-29T09:45:37;2.33;;;1.67;;
4452;SDS011;2239;48.152;11.584;2023-05-29T09:48:04;3.57;;;1.70;;
4452;SDS011;2239;48.152;11.584;2023-05-29T09:50:31;3.30;;;1.80;;
4452;SDS011;2239;48.152;11.584;2023-05-29T09:52:58;2.50;;;1.63;;
4452;SDS011;2239;48.152;11.584;2023-05-29T09:55:26;3.43;;;2.17;;
4452;SDS011;2239;48.152;11.584;2023-05-29T09:57:53;3.87;;;2.17;;
4452;SDS011;2239;48.152;11.584;2023-05-29T10:00:20;5.40;;;1.60;;
4452;SDS011;2239;48.152;11.584;2023-05-29T10:02:47;3.73;;;1.90;;
4452;SDS011;2239;48.152;11.584;2023-05-29T10:05:14;4.20;;;1.90;;
4452;SDS011;2239;48.152;11.584;2023-05-29T10:07:44;4.23;;;2.20;;
4452;SDS011;2239;48.152;11.584;2023-05-29T10:10:15;2.50;;;1.60;;
4452;SDS011;2239;48.152;11.584;2023-05-29T10:12:48;3.43;;;1.87;;
4452;SDS011;2239;48.152;11.584;2023-05-29T10:15:15;5.17;;;1.70;;
4452;SDS011;2239;48.152;11.584;2023-05-29T10:18:03;3.03;;;1.67;;
4452;SDS011;2239;48.152;11.584;2023-05-29T10:20:30;3.03;;;1.60;;
4452;SDS011;2239;48.152;11.584;2023-05-29T10:22:59;1.70;;;1.60;;
4452;SDS011;2239;48.152;11.584;2023-05-29T10:25:27;3.63;;;1.70;;
4452;SDS011;2239;48.152;11.584;2023-05-29T10:27:54;4.50;;;2.00;;
4452;SDS011;2239;48.152;11.584;2023-05-29T10:35:53;2.07;;;1.40;;
4452;SDS011;2239;48.152;11.584;2023-05-29T10:38:28;2.70;;;1.47;;
4452;SDS011;2239;48.152;11.584;2023-05-29T10:40:54;2.30;;;1.40;;
4452;SDS011;2239;48.152;11.584;2023-05-29T10:43:29;3.40;;;1.67;;
4452;SDS011;2239;48.152;11.584;2023-05-29T10:46:00;1.87;;;1.60;;
4452;SDS011;2239;48.152;11.584;2023-05-29T10:50:55;3.30;;;1.73;;
4452;SDS011;2239;48.152;11.584;2023-05-29T10:53:25;3.47;;;1.93;;
4452;SDS011;2239;48.152;11.584;2023-05-29T10:55:55;4.40;;;1.93;;
4452;SDS011;2239;48.152;11.584;2023-05-29T10:58:22;3.70;;;1.80;;
4452;SDS011;2239;48.152;11.584;2023-05-29T11:00:49;3.40;;;1.60;;
4452;SDS011;2239;48.152;11.584;2023-05-29T11:03:25;3.53;;;2.00;;
4452;SDS011;2239;48.152;11.584;2023-05-29T11:05:59;5.23;;;2.00;;
4452;SDS011;2239;48.152;11.584;2023-05-29T11:08:33;5.47;;;2.00;;
4452;SDS011;2239;48.152;11.584;2023-05-29T11:13:53;4.20;;;2.30;;
4452;SDS011;2239;48.152;11.584;2023-05-29T11:16:35;3.33;;;1.70;;
4452;SDS011;2239;48.152;11.584;2023-05-29T11:19:08;2.03;;;1.50;;
4452;SDS011;2239;48.152;11.584;2023-05-29T11:21:53;3.73;;;2.17;;
4452;SDS011;2239;48.152;11.584;2023-05-29T11:24:34;3.43;;;1.70;;
4452;SDS011;2239;48.152;11.584;2023-05-29T11:27:02;2.70;;;1.57;;
4452;SDS011;2239;48.152;11.584;2023-05-29T11:29:31;4.67;;;1.93;;
4452;SDS011;2239;48.152;11.584;2023-05-29T11:32:06;3.03;;;1.50;;
4452;SDS011;2239;48.152;11.584;2023-05-29T11:34:39;5.07;;;1.90;;
4452;SDS011;2239;48.152;11.584;2023-05-29T11:37:06;4.67;;;2.47;;
4452;SDS011;2239;48.152;11.584;2023-05-29T11:39:35;2.57;;;1.37;;
4452;SDS011;2239;48.152;11.584;2023-05-29T11:42:01;7.47;;;1.97;;
4452;SDS011;2239;48.152;11.584;2023-05-29T11:44:27;2.97;;;1.90;;
4452;SDS011;2239;48.152;11.584;2023-05-29T11:47:03;2.53;;;1.70;;
4452;SDS011;2239;48.152;11.584;2023-05-29T11:49:30;3.60;;;1.50;;
4452;SDS011;2239;48.152;11.584;2023-05-29T11:54:33;4.73;;;1.80;;
4452;SDS011;2239;48.152;11.584;2023-05-29T11:56:59;5.10;;;2.20;;
4452;SDS011;2239;48.152;11.584;2023-05-29T11:59:30;3.83;;;1.90;;
4452;SDS011;2239;48.152;11.584;2023-05-29T12:01:56;3.67;;;1.97;;
4452;SDS011;2239;48.152;11.584;2023-05-29T12:04:22;6.63;;;1.90;;
4452;SDS011;2239;48.152;11.584;2023-05-29T12:06:47;1.80;;;1.30;;
4452;SDS011;2239;48.152;11.584;2023-05-29T12:09:29;6.10;;;1.90;;
4452;SDS011;2239;48.152;11.584;2023-05-29T12:12:01;5.00;;;1.63;;
4452;SDS011;2239;48.152;11.584;2023-05-29T12:14:27;3.70;;;1.60;;
4452;SDS011;2239;48.152;11.584;2023-05-29T12:16:53;4.23;;;1.80;;
4452;SDS011;2239;48.152;11.584;2023-05-29T12:19:18;3.87;;;2.00;;
4452;SDS011;2239;48.152;11.584;2023-05-29T12:21:44;2.20;;;1.70;;
4452;SDS011;2239;48.152;11.584;2023-05-29T12:24:10;3.43;;;1.70;;
4452;SDS011;2239;48.152;11.584;2023-05-29T12:26:36;3.40;;;1.70;;
4452;SDS011;2239;48.152;11.584;2023-05-29T12:29:02;3.83;;;2.00;;
4452;SDS011;2239;48.152;11.584;2023-05-29T12:31:30;2.37;;;1.60;;
4452;SDS011;2239;48.152;11.584;2023-05-29T12:34:07;5.10;;;2.10;;
4452;SDS011;2239;48.152;11.584;2023-05-29T12:36:33;3.70;;;1.80;;
4452;SDS011;2239;48.152;11.584;2023-05-29T12:38:59;5.67;;;1.60;;
4452;SDS011;2239;48.152;11.584;2023-05-29T12:41:35;3.77;;;2.13;;
4452;SDS011;2239;48.152;11.584;2023-05-29T12:44:02;2.47;;;1.67;;
4452;SDS011;2239;48.152;11.584;2023-05-29T12:46:34;3.23;;;1.90;;
4452;SDS011;2239;48.152;11.584;2023-05-29T12:49:12;5.03;;;2.17;;
4452;SDS011;2239;48.152;11.584;2023-05-29T12:51:42;2.10;;;1.30;;
4452;SDS011;2239;48.152;11.584;2023-05-29T12:54:11;3.37;;;1.97;;
4452;SDS011;2239;48.152;11.584;2023-05-29T12:56:38;2.97;;;1.73;;
4452;SDS011;2239;48.152;11.584;2023-05-29T12:59:05;2.07;;;1.50;;
4452;SDS011;2239;48.152;11.584;2023-05-29T13:01:32;2.80;;;1.70;;
4452;SDS011;2239;48.152;11.584;2023-05-29T13:03:57;3.23;;;2.03;;
4452;SDS011;2239;48.152;11.584;2023-05-29T13:06:23;3.27;;;1.87;;
4452;SDS011;2239;48.152;11.584;2023-05-29T13:08:49;2.87;;;1.70;;
4452;SDS011;2239;48.152;11.584;2023-05-29T13:11:14;2.67;;;1.93;;
4452;SDS011;2239;48.152;11.584;2023-05-29T13:13:40;3.37;;;1.80;;
4452;SDS011;2239;48.152;11.584;2023-05-29T13:16:05;3.63;;;2.03;;
4452;SDS011;2239;48.152;11.584;2023-05-29T13:18:31;5.43;;;2.10;;
4452;SDS011;2239;48.152;11.584;2023-05-29T13:20:57;6.43;;;1.50;;
4452;SDS011;2239;48.152;11.584;2023-05-29T13:23:24;2.10;;;1.60;;
4452;SDS011;2239;48.152;11.584;2023-05-29T13:25:49;4.53;;;1.40;;
4452;SDS011;2239;48.152;11.584;2023-05-29T13:28:15;2.10;;;1.60;;
4452;SDS011;2239;48.152;11.584;2023-05-29T13:30:41;3.23;;;2.10;;
4452;SDS011;2239;48.152;11.584;2023-05-29T13:33:07;4.00;;;2.07;;
4452;SDS011;2239;48.152;11.584;2023-05-29T13:35:32;3.80;;;2.00;;
4452;SDS011;2239;48.152;11.584;2023-05-29T13:37:58;2.73;;;1.73;;
4452;SDS011;2239;48.152;11.584;2023-05-29T13:40:23;4.63;;;1.67;;
4452;SDS011;2239;48.152;11.584;2023-05-29T13:42:49;3.40;;;1.90;;
4452;SDS011;2239;48.152;11.584;2023-05-29T13:45:15;2.90;;;1.63;;
4452;SDS011;2239;48.152;11.584;2023-05-29T13:47:41;3.77;;;2.00;;
4452;SDS011;2239;48.152;11.584;2023-05-29T13:50:07;4.30;;;2.10;;
4452;SDS011;2239;48.152;11.584;2023-05-29T13:52:33;1.70;;;1.53;;
4452;SDS011;2239;48.152;11.584;2023-05-29T13:54:59;2.83;;;1.60;;
4452;SDS011;2239;48.152;11.584;2023-05-29T13:57:29;3.67;;;2.07;;
4452;SDS011;2239;48.152;11.584;2023-05-29T13:59:56;2.60;;;1.40;;
4452;SDS011;2239;48.152;11.584;2023-05-29T14:02:21;3.67;;;1.50;;
4452;SDS011;2239;48.152;11.584;2023-05-29T14:04:47;2.10;;;1.30;;
4452;SDS011;2239;48.152;11.584;2023-05-29T14:07:13;4.07;;;1.90;;
4452;SDS011;2239;48.152;11.584;2023-05-29T14:09:38;4.00;;;1.90;;
4452;SDS011;2239;48.152;11.584;2023-05-29T14:12:04;4.33;;;2.00;;
4452;SDS011;2239;48.152;11.584;2023-05-29T14:14:31;3.27;;;2.00;;
4452;SDS011;2239;48.152;11.584;2023-05-29T14:16:58;3.03;;;1.80;;
4452;SDS011;2239;48.152;11.584;2023-05-29T14:19:23;3.33;;;1.70;;
4452;SDS011;2239;48.152;11.584;2023-05-29T14:21:49;6.10;;;1.70;;
4452;SDS011;2239;48.152;11.584;2023-05-29T14:24:15;3.07;;;2.13;;
4452;SDS011;2239;48.152;11.584;2023-05-29T14:26:42;3.73;;;1.70;;
4452;SDS011;2239;48.152;11.584;2023-05-29T14:29:11;2.83;;;1.73;;
4452;SDS011;2239;48.152;11.584;2023-05-29T14:31:37;2.50;;;1.47;;
4452;SDS011;2239;48.152;11.584;2023-05-29T14:34:04;3.70;;;1.97;;
4452;SDS011;2239;48.152;11.584;2023-05-29T14:36:29;2.83;;;1.90;;
4452;SDS011;2239;48.152;11.584;2023-05-29T14:38:55;4.57;;;2.00;;
4452;SDS011;2239;48.152;11.584;2023-05-29T14:41:20;2.93;;;1.70;;
4452;SDS011;2239;48.152;11.584;2023-05-29T14:43:46;3.27;;;1.67;;
4452;SDS011;2239;48.152;11.584;2023-05-29T14:46:11;3.93;;;2.30;;
4452;SDS011;2239;48.152;11.584;2023-05-29T14:48:38;3.90;;;2.10;;
4452;SDS011;2239;48.152;11.584;2023-05-29T14:51:03;3.13;;;1.90;;
4452;SDS011;2239;48.152;11.584;2023-05-29T14:53:29;3.20;;;1.47;;
4452;SDS011;2239;48.152;11.584;2023-05-29T14:55:56;4.50;;;1.93;;
4452;SDS011;2239;48.152;11.584;2023-05-29T14:58:22;3.93;;;1.97;;
4452;SDS011;2239;48.152;11.584;2023-05-29T15:00:47;2.90;;;2.17;;
4452;SDS011;2239;48.152;11.584;2023-05-29T15:03:13;4.10;;;1.83;;
4452;SDS011;2239;48.152;11.584;2023-05-29T15:05:38;3.23;;;2.00;;
4452;SDS011;2239;48.152;11.584;2023-05-29T15:08:04;2.43;;;1.50;;
4452;SDS011;2239;48.152;11.584;2023-05-29T15:10:30;4.37;;;1.63;;
4452;SDS011;2239;48.152;11.584;2023-05-29T15:12:55;6.03;;;1.80;;
4452;SDS011;2239;48.152;11.584;2023-05-29T15:15:24;3.40;;;1.87;;
4452;SDS011;2239;48.152;11.584;2023-05-29T15:17:53;2.30;;;1.50;;
4452;SDS011;2239;48.152;11.584;2023-05-29T15:20:24;2.53;;;1.50;;